createdAt,value
2018-01-10T00:01:31.100Z,25.70
2018-01-10T00:03:58.703Z,25.73
2018-01-10T00:06:26.323Z,28.00
2018-01-10T00:08:53.959Z,27.23
2018-01-10T00:11:21.563Z,29.37
2018-01-10T00:13:49.915Z,29.83
2018-01-10T00:16:17.533Z,31.03
2018-01-10T00:18:48.926Z,32.20
2018-01-10T00:21:16.555Z,31.57
2018-01-10T00:23:44.180Z,29.57
2018-01-10T00:26:12.547Z,31.57
2018-01-10T00:28:40.150Z,29.50
2018-01-10T00:31:07.754Z,30.03
2018-01-10T00:33:35.349Z,32.60
2018-01-10T00:36:02.954Z,33.43
2018-01-10T00:38:30.583Z,33.53
2018-01-10T00:40:58.227Z,31.73
2018-01-10T00:43:26.583Z,34.30
2018-01-10T00:45:54.169Z,32.03
2018-01-10T00:48:22.520Z,31.23
2018-01-10T00:50:53.463Z,29.23
2018-01-10T00:53:21.072Z,26.00
2018-01-10T00:55:48.684Z,27.60
2018-01-10T00:58:16.296Z,27.07
2018-01-10T01:00:43.918Z,26.17
2018-01-10T01:03:11.510Z,26.40
2018-01-10T01:05:39.097Z,25.13
2018-01-10T01:08:06.690Z,27.10
2018-01-10T01:10:34.290Z,26.03
2018-01-10T01:13:01.893Z,25.73
2018-01-10T01:15:29.525Z,25.03
2018-01-10T01:17:57.113Z,24.33
2018-01-10T01:20:24.722Z,24.63
2018-01-10T01:22:53.087Z,23.10
2018-01-10T01:25:21.463Z,21.70
2018-01-10T01:27:51.777Z,21.80
2018-01-10T01:30:19.375Z,20.80
2018-01-10T01:32:46.996Z,20.97
2018-01-10T01:35:14.576Z,22.10
2018-01-10T01:37:42.202Z,22.47
2018-01-10T01:40:09.803Z,23.90
2018-01-10T01:42:38.186Z,24.73
2018-01-10T01:45:06.534Z,23.90
2018-01-10T01:47:34.127Z,25.60
2018-01-10T01:50:02.502Z,26.57
2018-01-10T01:52:30.870Z,25.63
2018-01-10T01:54:58.471Z,27.10
2018-01-10T01:57:26.079Z,27.73
2018-01-10T01:59:53.673Z,29.80
2018-01-10T02:02:22.047Z,30.00
2018-01-10T02:04:49.634Z,29.40
2018-01-10T02:07:17.250Z,33.53
2018-01-10T02:09:44.867Z,33.73
2018-01-10T02:12:12.462Z,32.53
2018-01-10T02:14:40.054Z,33.90
2018-01-10T02:17:08.408Z,33.37
2018-01-10T02:19:36.024Z,34.63
2018-01-10T02:22:03.610Z,34.80
2018-01-10T02:24:31.379Z,34.87
2018-01-10T02:26:58.972Z,37.20
2018-01-10T02:29:26.579Z,35.77
2018-01-10T02:31:54.156Z,35.77
2018-01-10T02:34:21.756Z,37.30
2018-01-10T02:36:50.114Z,36.50
2018-01-10T02:39:17.731Z,35.73
2018-01-10T02:41:45.362Z,37.03
2018-01-10T02:44:13.749Z,35.50
2018-01-10T02:46:42.096Z,35.87
2018-01-10T02:49:10.722Z,34.90
2018-01-10T02:51:38.315Z,36.53
2018-01-10T02:54:05.899Z,33.67
2018-01-10T02:56:33.498Z,32.43
2018-01-10T02:59:01.888Z,32.77
2018-01-10T03:01:29.532Z,32.93
2018-01-10T03:03:57.891Z,32.40
2018-01-10T03:06:25.492Z,30.70
2018-01-10T03:08:53.086Z,32.00
2018-01-10T03:11:20.690Z,30.50
2018-01-10T03:13:49.063Z,30.33
2018-01-10T03:16:16.667Z,31.67
2018-01-10T03:18:44.246Z,31.63
2018-01-10T03:21:11.847Z,28.63
2018-01-10T03:23:39.433Z,28.40
2018-01-10T03:26:07.777Z,26.17
2018-01-10T03:28:35.358Z,25.70
2018-01-10T03:31:03.727Z,22.90
2018-01-10T03:33:32.143Z,22.13
2018-01-10T03:35:59.741Z,20.93
2018-01-10T03:38:27.350Z,19.90
2018-01-10T03:40:54.952Z,20.80
2018-01-10T03:43:22.553Z,20.70
2018-01-10T03:45:50.151Z,20.00
2018-01-10T03:48:17.730Z,21.20
2018-01-10T03:50:45.368Z,19.97
2018-01-10T03:53:13.822Z,19.60
2018-01-10T03:55:42.176Z,19.10
2018-01-10T03:58:09.790Z,19.60
2018-01-10T04:00:37.410Z,19.00
2018-01-10T04:03:05.017Z,18.87
2018-01-10T04:05:32.640Z,19.90
2018-01-10T04:08:00.244Z,19.20
2018-01-10T04:10:27.850Z,19.73
2018-01-10T04:12:55.436Z,19.43
2018-01-10T04:15:23.789Z,20.03
2018-01-10T04:17:51.376Z,20.50
2018-01-10T04:20:19.742Z,19.53
2018-01-10T04:22:47.364Z,19.00
2018-01-10T04:25:15.538Z,19.03
2018-01-10T04:27:43.139Z,19.03
2018-01-10T04:30:10.762Z,18.10
2018-01-10T04:32:38.383Z,18.13
2018-01-10T04:35:06.733Z,17.80
2018-01-10T04:37:34.334Z,17.90
2018-01-10T04:40:01.939Z,19.70
2018-01-10T04:42:29.552Z,17.97
2018-01-10T04:44:57.132Z,18.43
2018-01-10T04:47:24.725Z,16.97
2018-01-10T04:49:53.079Z,18.77
2018-01-10T04:52:20.681Z,18.50
2018-01-10T04:54:48.278Z,17.17
2018-01-10T04:57:15.877Z,17.57
2018-01-10T04:59:43.488Z,17.83
2018-01-10T05:02:11.841Z,18.87
2018-01-10T05:04:39.427Z,16.77
2018-01-10T05:07:07.798Z,17.10
2018-01-10T05:09:36.175Z,18.90
2018-01-10T05:12:04.538Z,17.27
2018-01-10T05:14:32.133Z,18.40
2018-01-10T05:16:59.763Z,17.80
2018-01-10T05:19:27.375Z,17.57
2018-01-10T05:21:54.987Z,18.27
2018-01-10T05:24:22.602Z,17.70
2018-01-10T05:26:50.221Z,18.00
2018-01-10T05:29:17.814Z,18.33
2018-01-10T05:31:45.395Z,17.73
2018-01-10T05:34:13.026Z,16.40
2018-01-10T05:36:40.648Z,15.37
2018-01-10T05:39:08.245Z,14.73
2018-01-10T05:41:35.833Z,13.27
2018-01-10T05:44:03.451Z,13.80
2018-01-10T05:46:31.056Z,12.83
2018-01-10T05:48:58.645Z,10.97
2018-01-10T05:51:26.263Z,12.00
2018-01-10T05:53:53.876Z,11.60
2018-01-10T05:56:21.504Z,11.33
2018-01-10T05:58:49.092Z,11.27
2018-01-10T06:01:17.123Z,12.67
2018-01-10T06:03:44.741Z,11.30
2018-01-10T06:06:12.324Z,12.70
2018-01-10T06:08:39.924Z,11.73
2018-01-10T06:11:07.509Z,11.97
2018-01-10T06:13:35.154Z,11.87
2018-01-10T06:16:03.559Z,12.10
2018-01-10T06:18:31.938Z,11.43
2018-01-10T06:20:59.578Z,11.70
2018-01-10T06:23:27.173Z,11.20
2018-01-10T06:25:56.972Z,10.33
2018-01-10T06:28:24.582Z,11.33
2018-01-10T06:30:52.205Z,12.47
2018-01-10T06:33:19.793Z,11.70
2018-01-10T06:35:47.406Z,11.97
2018-01-10T06:38:15.024Z,12.07
2018-01-10T06:40:42.713Z,11.70
2018-01-10T06:43:33.693Z,12.07
2018-01-10T06:46:01.295Z,11.53
2018-01-10T06:48:29.694Z,11.30
2018-01-10T06:50:57.304Z,12.63
2018-01-10T06:53:24.890Z,12.23
2018-01-10T06:55:52.485Z,13.40
2018-01-10T06:58:20.083Z,12.80
2018-01-10T07:00:47.700Z,12.13
2018-01-10T07:03:15.308Z,13.20
2018-01-10T07:05:42.946Z,15.20
2018-01-10T07:08:11.338Z,17.40
2018-01-10T07:10:38.944Z,18.00
2018-01-10T07:13:06.549Z,18.30
2018-01-10T07:15:34.907Z,17.60
2018-01-10T07:18:02.501Z,18.37
2018-01-10T07:20:30.122Z,19.70
2018-01-10T07:22:57.737Z,18.23
2018-01-10T07:25:25.328Z,15.20
2018-01-10T07:27:53.223Z,15.97
2018-01-10T07:30:20.854Z,16.83
2018-01-10T07:32:48.429Z,18.63
2018-01-10T07:35:16.017Z,17.17
2018-01-10T07:37:44.384Z,19.03
2018-01-10T07:40:12.111Z,17.80
2018-01-10T07:42:39.699Z,20.23
2018-01-10T07:45:07.291Z,17.37
2018-01-10T07:47:35.660Z,16.67
2018-01-10T07:50:04.045Z,14.93
2018-01-10T07:52:31.664Z,14.30
2018-01-10T07:54:59.255Z,14.03
2018-01-10T07:57:26.849Z,13.27
2018-01-10T07:59:54.444Z,12.90
2018-01-10T08:02:22.073Z,12.87
2018-01-10T08:04:49.673Z,13.57
2018-01-10T08:07:17.264Z,12.43
2018-01-10T08:09:44.918Z,12.17
2018-01-10T08:12:12.499Z,12.47
2018-01-10T08:14:40.863Z,12.50
2018-01-10T08:17:08.495Z,11.33
2018-01-10T08:19:36.114Z,12.07
2018-01-10T08:22:03.707Z,12.03
2018-01-10T08:24:31.306Z,13.20
2018-01-10T08:26:58.901Z,12.77
2018-01-10T08:29:26.510Z,12.80
2018-01-10T08:31:54.111Z,13.33
2018-01-10T08:34:21.701Z,12.17
2018-01-10T08:36:49.334Z,12.40
2018-01-10T08:39:16.929Z,12.70
2018-01-10T08:41:44.530Z,12.50
2018-01-10T08:44:12.121Z,10.70
2018-01-10T08:46:40.485Z,10.90
2018-01-10T08:49:08.065Z,10.23
2018-01-10T08:51:35.650Z,10.60
2018-01-10T08:54:03.260Z,11.00
2018-01-10T08:56:30.875Z,10.30
2018-01-10T08:58:58.481Z,10.20
2018-01-10T09:01:26.871Z,9.50
2018-01-10T09:03:55.234Z,9.67
2018-01-10T09:06:22.818Z,10.87
2018-01-10T09:08:51.178Z,10.57
2018-01-10T09:11:18.802Z,10.90
2018-01-10T09:13:46.388Z,9.93
2018-01-10T09:16:13.986Z,10.00
2018-01-10T09:18:42.327Z,10.60
2018-01-10T09:21:09.901Z,9.37
2018-01-10T09:23:37.506Z,9.43
2018-01-10T09:26:05.110Z,9.60
2018-01-10T09:28:32.732Z,12.13
2018-01-10T09:31:00.321Z,12.53
2018-01-10T09:33:27.931Z,14.93
2018-01-10T09:35:56.295Z,20.40
2018-01-10T09:38:24.663Z,15.20
2018-01-10T09:40:52.277Z,13.10
2018-01-10T09:43:19.860Z,9.90
2018-01-10T09:45:47.493Z,10.00
2018-01-10T09:48:15.104Z,10.27
2018-01-10T09:50:42.701Z,10.13
2018-01-10T09:53:10.305Z,15.00
2018-01-10T09:55:37.887Z,11.27
2018-01-10T09:58:05.501Z,12.70
2018-01-10T10:00:33.116Z,11.60
2018-01-10T10:03:00.744Z,10.10
2018-01-10T10:05:28.338Z,8.57
2018-01-10T10:07:55.944Z,8.03
2018-01-10T10:10:23.533Z,7.70
2018-01-10T10:12:51.858Z,8.43
2018-01-10T10:15:20.223Z,9.07
2018-01-10T10:17:47.839Z,8.70
2018-01-10T10:20:15.453Z,9.60
2018-01-10T10:22:43.819Z,10.13
2018-01-10T10:25:11.403Z,8.67
2018-01-10T10:27:39.749Z,8.70
2018-01-10T10:30:07.350Z,8.33
2018-01-10T10:32:34.938Z,9.90
2018-01-10T10:35:02.535Z,9.50
2018-01-10T10:37:30.167Z,9.00
2018-01-10T10:39:57.779Z,8.37
2018-01-10T10:42:26.124Z,9.40
2018-01-10T10:44:53.748Z,8.57
2018-01-10T10:47:21.356Z,7.97
2018-01-10T10:49:48.947Z,8.03
2018-01-10T10:52:17.308Z,9.80
2018-01-10T10:54:44.928Z,8.53
2018-01-10T10:57:12.514Z,8.00
2018-01-10T10:59:40.519Z,7.60
2018-01-10T11:02:08.874Z,7.90
2018-01-10T11:04:36.465Z,8.40
2018-01-10T11:07:04.825Z,8.70
2018-01-10T11:09:32.418Z,8.10
2018-01-10T11:12:00.051Z,7.83
2018-01-10T11:14:28.392Z,8.77
2018-01-10T11:16:56.014Z,8.40
2018-01-10T11:19:23.614Z,10.23
2018-01-10T11:21:51.239Z,8.00
2018-01-10T11:24:18.841Z,7.57
2018-01-10T11:26:48.356Z,7.23
2018-01-10T11:29:15.958Z,6.13
2018-01-10T11:31:44.321Z,2.10
2018-01-10T11:34:11.930Z,2.00
2018-01-10T11:36:39.519Z,1.83
2018-01-10T11:39:07.096Z,2.20
2018-01-10T11:41:34.666Z,2.13
2018-01-10T11:44:03.015Z,1.90
2018-01-10T11:46:30.634Z,2.00
2018-01-10T11:48:58.210Z,2.57
2018-01-10T11:51:25.817Z,3.90
2018-01-10T11:53:54.191Z,2.70
2018-01-10T11:56:21.790Z,2.80
2018-01-10T11:58:49.378Z,2.93
2018-01-10T12:01:16.960Z,2.93
2018-01-10T12:03:44.596Z,2.67
2018-01-10T12:06:12.182Z,2.30
2018-01-10T12:08:39.760Z,2.63
2018-01-10T12:11:08.340Z,2.43
2018-01-10T12:13:35.948Z,2.40
2018-01-10T12:16:03.540Z,2.30
2018-01-10T12:18:31.127Z,2.70
2018-01-10T12:20:58.755Z,3.00
2018-01-10T12:23:26.358Z,2.40
2018-01-10T12:25:54.709Z,2.60
2018-01-10T12:28:22.298Z,2.40
2018-01-10T12:30:50.872Z,2.53
2018-01-10T12:33:18.450Z,2.80
2018-01-10T12:35:46.036Z,2.97
2018-01-10T12:38:13.660Z,2.10
2018-01-10T12:40:41.265Z,2.63
2018-01-10T12:43:09.817Z,2.30
2018-01-10T12:45:38.223Z,2.20
2018-01-10T12:48:05.819Z,2.80
2018-01-10T12:50:33.429Z,2.50
2018-01-10T12:53:01.016Z,1.93
2018-01-10T12:55:28.629Z,2.63
2018-01-10T12:57:56.224Z,2.60
2018-01-10T13:00:23.828Z,2.40
2018-01-10T13:02:51.437Z,2.50
2018-01-10T13:05:19.044Z,2.87
2018-01-10T13:07:46.622Z,3.90
2018-01-10T13:10:15.279Z,4.77
2018-01-10T13:12:42.917Z,5.63
2018-01-10T13:15:10.482Z,6.83
2018-01-10T13:17:38.056Z,6.40
2018-01-10T13:20:05.725Z,6.37
2018-01-10T13:22:34.087Z,5.90
2018-01-10T13:25:01.664Z,6.13
2018-01-10T13:27:29.236Z,6.70
2018-01-10T13:29:56.911Z,6.33
2018-01-10T13:32:24.504Z,6.40
2018-01-10T13:35:02.785Z,6.50
2018-01-10T13:37:30.353Z,6.33
2018-01-10T13:39:57.941Z,5.77
2018-01-10T13:42:26.291Z,6.13
2018-01-10T13:44:53.864Z,5.60
2018-01-10T13:47:21.437Z,6.40
2018-01-10T13:49:49.790Z,7.17
2018-01-10T13:52:17.420Z,7.63
2018-01-10T13:54:45.011Z,8.20
2018-01-10T13:57:12.584Z,7.87
2018-01-10T13:59:40.161Z,7.70
2018-01-10T14:02:08.516Z,8.40
2018-01-10T14:04:36.098Z,11.67
2018-01-10T14:07:04.445Z,11.13
2018-01-10T14:09:32.063Z,10.90
2018-01-10T14:12:05.674Z,9.57
2018-01-10T14:14:33.300Z,10.30
2018-01-10T14:17:01.657Z,10.50
2018-01-10T14:19:29.241Z,10.37
2018-01-10T14:21:57.600Z,12.20
2018-01-10T14:24:25.198Z,14.00
2018-01-10T14:26:52.796Z,12.40
2018-01-10T14:29:20.965Z,12.80
2018-01-10T14:31:48.587Z,12.37
2018-01-10T14:34:16.946Z,11.50
2018-01-10T14:36:44.530Z,9.23
2018-01-10T14:39:12.879Z,9.10
2018-01-10T14:41:41.419Z,9.23
2018-01-10T14:44:09.019Z,8.80
2018-01-10T14:46:37.675Z,8.10
2018-01-10T14:49:05.276Z,8.60
2018-01-10T14:51:32.861Z,9.30
2018-01-10T14:54:01.206Z,10.23
2018-01-10T14:56:28.794Z,10.20
2018-01-10T14:58:57.145Z,9.57
2018-01-10T15:01:24.742Z,15.60
2018-01-10T15:03:53.085Z,18.37
2018-01-10T15:06:20.707Z,16.23
2018-01-10T15:08:48.298Z,10.77
2018-01-10T15:11:15.881Z,11.47
2018-01-10T15:13:47.418Z,10.53
2018-01-10T15:16:15.006Z,9.80
2018-01-10T15:18:43.363Z,10.40
2018-01-10T15:21:10.982Z,11.43
2018-01-10T15:23:38.576Z,9.50
2018-01-10T15:26:06.152Z,10.03
2018-01-10T15:28:33.740Z,9.83
2018-01-10T15:31:02.099Z,9.63
2018-01-10T15:33:33.517Z,9.80
2018-01-10T15:36:01.104Z,9.70
2018-01-10T15:38:28.680Z,10.07
2018-01-10T15:40:57.020Z,8.93
2018-01-10T15:43:24.613Z,8.97
2018-01-10T15:45:52.975Z,8.67
2018-01-10T15:48:20.582Z,10.70
2018-01-10T15:50:48.191Z,11.73
2018-01-10T15:53:16.732Z,12.10
2018-01-10T15:55:45.132Z,13.10
2018-01-10T15:58:12.713Z,12.43
2018-01-10T16:00:40.320Z,10.10
2018-01-10T16:03:08.533Z,11.00
2018-01-10T16:05:36.175Z,10.27
2018-01-10T16:08:03.751Z,10.10
2018-01-10T16:10:31.369Z,9.33
2018-01-10T16:12:59.730Z,10.00
2018-01-10T16:15:27.311Z,9.30
2018-01-10T16:18:03.893Z,9.63
2018-01-10T16:20:31.521Z,9.90
2018-01-10T16:22:59.134Z,8.80
2018-01-10T16:25:26.705Z,8.50
2018-01-10T16:27:54.306Z,9.90
2018-01-10T16:30:21.964Z,10.27
2018-01-10T16:32:49.563Z,11.10
2018-01-10T16:35:17.158Z,9.83
2018-01-10T16:37:44.737Z,9.90
2018-01-10T16:40:19.756Z,8.70
2018-01-10T16:42:48.261Z,10.10
2018-01-10T16:45:15.868Z,9.07
2018-01-10T16:47:43.450Z,9.90
2018-01-10T16:50:11.046Z,9.00
2018-01-10T16:52:43.886Z,9.13
2018-01-10T16:55:11.464Z,8.60
2018-01-10T16:57:39.064Z,9.20
2018-01-10T17:00:06.653Z,8.73
2018-01-10T17:02:34.260Z,8.30
2018-01-10T17:05:02.867Z,8.77
2018-01-10T17:07:30.433Z,7.73
2018-01-10T17:09:58.057Z,8.37
2018-01-10T17:15:00.452Z,7.70
2018-01-10T17:17:28.027Z,9.20
2018-01-10T17:19:55.637Z,8.63
2018-01-10T17:22:23.214Z,8.97
2018-01-10T17:24:50.812Z,8.00
2018-01-10T17:27:28.816Z,7.87
2018-01-10T17:29:56.403Z,7.50
2018-01-10T17:32:25.162Z,8.73
2018-01-10T17:34:52.760Z,8.67
2018-01-10T17:37:21.138Z,7.10
2018-01-10T17:43:04.796Z,8.60
2018-01-10T17:45:33.158Z,8.27
2018-01-10T17:48:01.087Z,8.10
2018-01-10T17:50:28.666Z,8.20
2018-01-10T17:52:56.243Z,7.30
2018-01-10T17:55:23.853Z,7.93
2018-01-10T17:57:53.170Z,8.60
2018-01-10T18:00:20.781Z,7.23
2018-01-10T18:02:49.137Z,8.63
2018-01-10T18:05:16.769Z,9.17
2018-01-10T18:07:44.363Z,10.57
2018-01-10T18:10:11.982Z,10.77
2018-01-10T18:12:44.808Z,14.13
2018-01-10T18:15:12.402Z,13.00
2018-01-10T18:17:46.271Z,11.33
2018-01-10T18:20:13.860Z,12.50
2018-01-10T18:22:42.247Z,11.53
2018-01-10T18:25:10.675Z,10.87
2018-01-10T18:27:38.256Z,12.33
2018-01-10T18:30:05.888Z,12.60
2018-01-10T18:32:33.513Z,21.17
2018-01-10T18:35:01.862Z,38.60
2018-01-10T18:37:29.449Z,10.63
2018-01-10T18:39:58.025Z,9.63
2018-01-10T18:42:26.378Z,7.60
2018-01-10T18:44:53.957Z,7.77
2018-01-10T18:47:22.340Z,7.20
2018-01-10T18:49:51.525Z,7.30
2018-01-10T18:52:19.182Z,7.47
2018-01-10T18:54:46.794Z,6.00
2018-01-10T18:57:15.016Z,6.47
2018-01-10T18:59:42.596Z,5.83
2018-01-10T19:02:10.193Z,6.43
2018-01-10T19:04:37.818Z,5.57
2018-01-10T19:07:05.412Z,5.73
2018-01-10T19:09:33.096Z,5.50
2018-01-10T19:12:00.698Z,5.40
2018-01-10T19:14:28.345Z,5.13
2018-01-10T19:16:56.696Z,4.67
2018-01-10T19:19:24.312Z,5.30
2018-01-10T19:21:53.573Z,4.97
2018-01-10T19:24:21.168Z,4.43
2018-01-10T19:26:48.751Z,4.90
2018-01-10T19:29:16.329Z,4.17
2018-01-10T19:32:04.345Z,4.00
2018-01-10T19:34:32.682Z,3.10
2018-01-10T19:37:00.292Z,2.57
2018-01-10T19:39:27.870Z,2.50
2018-01-10T19:41:55.476Z,1.80
2018-01-10T19:44:23.060Z,1.77
2018-01-10T19:46:51.392Z,1.77
2018-01-10T19:49:19.003Z,1.77
2018-01-10T19:51:47.378Z,1.30
2018-01-10T19:54:15.783Z,1.63
2018-01-10T19:56:43.390Z,1.40
2018-01-10T19:59:10.994Z,1.53
2018-01-10T20:01:38.615Z,1.07
2018-01-10T20:04:06.240Z,1.90
2018-01-10T20:06:33.847Z,1.60
2018-01-10T20:09:01.441Z,1.60
2018-01-10T20:11:29.807Z,1.30
2018-01-10T20:13:58.164Z,1.60
2018-01-10T20:16:25.753Z,1.70
2018-01-10T20:18:54.088Z,1.40
2018-01-10T20:21:21.656Z,1.77
2018-01-10T20:23:50.036Z,1.40
2018-01-10T20:26:17.612Z,1.47
2018-01-10T20:28:46.213Z,1.50
2018-01-10T20:31:14.581Z,1.70
2018-01-10T20:33:42.192Z,1.70
2018-01-10T20:36:09.804Z,3.10
2018-01-10T20:38:37.398Z,4.83
2018-01-10T20:41:04.973Z,4.67
2018-01-10T20:43:32.553Z,5.00
2018-01-10T20:46:00.144Z,5.00
2018-01-10T20:48:27.732Z,4.60
2018-01-10T20:51:04.207Z,5.53
2018-01-10T20:53:31.834Z,6.23
2018-01-10T20:55:59.411Z,6.40
2018-01-10T20:58:28.127Z,7.00
2018-01-10T21:00:55.701Z,8.20
2018-01-10T21:03:23.289Z,7.30
2018-01-10T21:05:50.906Z,7.80
2018-01-10T21:08:18.522Z,7.47
2018-01-10T21:10:46.906Z,6.80
2018-01-10T21:13:14.468Z,5.83
2018-01-10T21:15:42.820Z,5.63
2018-01-10T21:18:10.401Z,6.63
2018-01-10T21:20:37.991Z,5.97
2018-01-10T21:23:06.350Z,5.53
2018-01-10T21:25:33.978Z,6.07
2018-01-10T21:28:01.562Z,6.50
2018-01-10T21:30:29.141Z,6.83
2018-01-10T21:32:57.489Z,7.90
2018-01-10T21:35:25.082Z,7.27
2018-01-10T21:37:53.417Z,7.40
2018-01-10T21:40:21.001Z,7.00
2018-01-10T21:42:48.619Z,6.60
2018-01-10T21:45:23.174Z,6.40
2018-01-10T21:47:50.774Z,7.40
2018-01-10T21:50:19.122Z,6.80
2018-01-10T21:52:46.696Z,6.13
2018-01-10T21:55:14.268Z,6.80
2018-01-10T21:57:43.080Z,6.40
2018-01-10T22:00:10.671Z,6.90
2018-01-10T22:02:38.246Z,6.60
2018-01-10T22:05:05.844Z,28.00
2018-01-10T22:07:33.432Z,6.43
2018-01-10T22:10:01.000Z,6.60
2018-01-10T22:12:28.600Z,7.03
2018-01-10T22:14:56.182Z,7.30
2018-01-10T22:17:24.537Z,8.37
2018-01-10T22:19:52.135Z,8.20
2018-01-10T22:22:19.730Z,7.80
2018-01-10T22:24:47.333Z,11.17
2018-01-10T22:27:14.913Z,10.80
2018-01-10T22:29:43.278Z,10.00
2018-01-10T22:32:11.640Z,10.33
2018-01-10T22:34:39.255Z,9.10
2018-01-10T22:37:06.862Z,9.93
2018-01-10T22:39:34.466Z,10.40
2018-01-10T22:42:02.075Z,10.27
2018-01-10T22:44:29.718Z,10.30
2018-01-10T22:46:57.340Z,9.83
2018-01-10T22:49:25.731Z,10.00
2018-01-10T22:51:53.312Z,12.00
2018-01-10T22:54:20.894Z,13.30
2018-01-10T22:56:48.484Z,12.87
2018-01-10T22:59:16.082Z,12.50
2018-01-10T23:01:43.713Z,13.67
2018-01-10T23:04:12.073Z,13.50
2018-01-10T23:06:39.676Z,12.90
2018-01-10T23:09:07.262Z,13.37
2018-01-10T23:11:34.862Z,13.30
2018-01-10T23:14:02.468Z,13.00
2018-01-10T23:16:30.050Z,14.30
2018-01-10T23:18:57.650Z,14.50
2018-01-10T23:21:25.275Z,12.93
2018-01-10T23:23:52.894Z,13.27
2018-01-10T23:26:21.265Z,14.97
2018-01-10T23:28:49.626Z,12.67
2018-01-10T23:31:17.205Z,13.30
2018-01-10T23:33:45.562Z,15.70
2018-01-10T23:36:13.139Z,14.80
2018-01-10T23:38:41.500Z,14.83
2018-01-10T23:41:09.080Z,15.00
2018-01-10T23:43:37.452Z,14.27
2018-01-10T23:46:05.031Z,12.70
2018-01-10T23:48:33.396Z,12.67
2018-01-10T23:51:01.790Z,13.17
2018-01-10T23:53:30.137Z,13.17
2018-01-10T23:55:57.720Z,19.73
2018-01-10T23:58:26.082Z,18.20
